Terminal Aerodrome Forecast
Issued by NWS

Home | Current Version | Previous Version | Graphics & Text | Print | Product List | Glossary On
Versions: 1 2 3 4 5 6 7 8 9 10 11 12 13 14 15
852
FTUS43 KGRB 251134
TAFAUW
TAF
KAUW 251134Z 2512/2612 03005KT P6SM SCT035
     FM251500 05007KT P6SM BKN050
     FM251900 10006KT P6SM SCT100
     FM260700 13004KT P6SM SCT035 OVC070 PROB30 2609/2612 5SM -RA BR
      BKN035=

USA.gov is the U.S. government's official web portal to all federal, state and local government web resources and services.